sensor_id;sensor_type;location;lat;lon;timestamp;temperature;humidity
18406;DHT22;9329;48.720;9.588;2022-08-20T00:00:11;20.20;99.90
18406;DHT22;9329;48.720;9.588;2022-08-20T00:02:41;20.30;99.90
18406;DHT22;9329;48.720;9.588;2022-08-20T00:05:09;20.20;99.90
18406;DHT22;9329;48.720;9.588;2022-08-20T00:07:37;20.10;99.90
18406;DHT22;9329;48.720;9.588;2022-08-20T00:10:06;20.00;99.90
18406;DHT22;9329;48.720;9.588;2022-08-20T00:12:35;20.10;99.90
18406;DHT22;9329;48.720;9.588;2022-08-20T00:15:04;20.00;99.90
18406;DHT22;9329;48.720;9.588;2022-08-20T00:17:32;20.00;99.90
18406;DHT22;9329;48.720;9.588;2022-08-20T00:20:02;20.20;99.90
18406;DHT22;9329;48.720;9.588;2022-08-20T00:22:29;20.10;99.90
18406;DHT22;9329;48.720;9.588;2022-08-20T00:24:56;20.00;99.90
18406;DHT22;9329;48.720;9.588;2022-08-20T00:27:23;19.80;99.90
18406;DHT22;9329;48.720;9.588;2022-08-20T00:29:52;20.10;99.90
18406;DHT22;9329;48.720;9.588;2022-08-20T00:32:19;19.90;99.90
18406;DHT22;9329;48.720;9.588;2022-08-20T00:34:47;19.90;99.90
18406;DHT22;9329;48.720;9.588;2022-08-20T00:37:14;20.00;99.90
18406;DHT22;9329;48.720;9.588;2022-08-20T00:39:41;20.10;99.90
18406;DHT22;9329;48.720;9.588;2022-08-20T00:42:08;20.10;99.90
18406;DHT22;9329;48.720;9.588;2022-08-20T00:44:35;20.20;99.90
18406;DHT22;9329;48.720;9.588;2022-08-20T00:47:04;20.20;99.90
18406;DHT22;9329;48.720;9.588;2022-08-20T00:49:31;20.50;99.90
18406;DHT22;9329;48.720;9.588;2022-08-20T00:52:03;20.40;99.90
18406;DHT22;9329;48.720;9.588;2022-08-20T00:54:35;20.30;99.90
18406;DHT22;9329;48.720;9.588;2022-08-20T00:57:08;20.30;99.90
18406;DHT22;9329;48.720;9.588;2022-08-20T00:59:38;19.90;99.90
18406;DHT22;9329;48.720;9.588;2022-08-20T01:02:10;19.80;99.90
18406;DHT22;9329;48.720;9.588;2022-08-20T01:04:37;20.20;99.90
18406;DHT22;9329;48.720;9.588;2022-08-20T01:07:05;20.30;99.90
18406;DHT22;9329;48.720;9.588;2022-08-20T01:09:34;20.20;99.90
18406;DHT22;9329;48.720;9.588;2022-08-20T01:12:02;19.90;99.90
18406;DHT22;9329;48.720;9.588;2022-08-20T01:14:29;19.80;99.90
18406;DHT22;9329;48.720;9.588;2022-08-20T01:17:07;19.70;99.90
18406;DHT22;9329;48.720;9.588;2022-08-20T01:19:37;19.90;99.90
18406;DHT22;9329;48.720;9.588;2022-08-20T01:22:06;19.80;99.90
18406;DHT22;9329;48.720;9.588;2022-08-20T01:24:49;19.90;99.90
18406;DHT22;9329;48.720;9.588;2022-08-20T01:27:19;19.50;99.90
18406;DHT22;9329;48.720;9.588;2022-08-20T01:29:48;19.70;99.90
18406;DHT22;9329;48.720;9.588;2022-08-20T01:32:15;19.40;99.90
18406;DHT22;9329;48.720;9.588;2022-08-20T01:34:42;19.30;99.90
18406;DHT22;9329;48.720;9.588;2022-08-20T01:37:09;19.30;99.90
18406;DHT22;9329;48.720;9.588;2022-08-20T01:39:36;19.30;99.90
18406;DHT22;9329;48.720;9.588;2022-08-20T01:42:09;19.10;99.90
18406;DHT22;9329;48.720;9.588;2022-08-20T01:44:44;19.20;99.90
18406;DHT22;9329;48.720;9.588;2022-08-20T01:47:15;19.10;99.90
18406;DHT22;9329;48.720;9.588;2022-08-20T01:49:46;18.90;99.90
18406;DHT22;9329;48.720;9.588;2022-08-20T01:52:21;19.00;99.90
18406;DHT22;9329;48.720;9.588;2022-08-20T01:54:50;19.20;99.90
18406;DHT22;9329;48.720;9.588;2022-08-20T01:57:19;19.10;99.90
18406;DHT22;9329;48.720;9.588;2022-08-20T01:59:49;18.90;99.90
18406;DHT22;9329;48.720;9.588;2022-08-20T02:02:16;18.80;99.90
18406;DHT22;9329;48.720;9.588;2022-08-20T02:04:44;19.30;99.90
18406;DHT22;9329;48.720;9.588;2022-08-20T02:07:14;19.30;99.90
18406;DHT22;9329;48.720;9.588;2022-08-20T02:09:42;19.00;99.90
18406;DHT22;9329;48.720;9.588;2022-08-20T02:12:09;19.00;99.90
18406;DHT22;9329;48.720;9.588;2022-08-20T02:14:40;18.90;99.90
18406;DHT22;9329;48.720;9.588;2022-08-20T02:17:10;19.00;99.90
18406;DHT22;9329;48.720;9.588;2022-08-20T02:19:40;19.00;99.90
18406;DHT22;9329;48.720;9.588;2022-08-20T02:22:15;18.80;99.90
18406;DHT22;9329;48.720;9.588;2022-08-20T02:24:44;19.00;99.90
18406;DHT22;9329;48.720;9.588;2022-08-20T02:27:11;18.90;99.90
18406;DHT22;9329;48.720;9.588;2022-08-20T02:29:39;18.70;99.90
18406;DHT22;9329;48.720;9.588;2022-08-20T02:32:06;18.60;99.90
18406;DHT22;9329;48.720;9.588;2022-08-20T02:34:35;18.60;99.90
18406;DHT22;9329;48.720;9.588;2022-08-20T02:37:04;19.10;99.90
18406;DHT22;9329;48.720;9.588;2022-08-20T02:39:31;19.10;99.90
18406;DHT22;9329;48.720;9.588;2022-08-20T02:41:58;19.10;99.90
18406;DHT22;9329;48.720;9.588;2022-08-20T02:44:26;19.20;99.90
18406;DHT22;9329;48.720;9.588;2022-08-20T02:46:53;19.30;99.90
18406;DHT22;9329;48.720;9.588;2022-08-20T02:49:20;19.40;99.90
18406;DHT22;9329;48.720;9.588;2022-08-20T02:51:49;19.50;99.90
18406;DHT22;9329;48.720;9.588;2022-08-20T02:54:16;19.20;99.90
18406;DHT22;9329;48.720;9.588;2022-08-20T02:56:43;19.20;99.90
18406;DHT22;9329;48.720;9.588;2022-08-20T02:59:10;18.80;99.90
18406;DHT22;9329;48.720;9.588;2022-08-20T03:01:38;18.90;99.90
18406;DHT22;9329;48.720;9.588;2022-08-20T03:04:05;18.90;99.90
18406;DHT22;9329;48.720;9.588;2022-08-20T03:06:32;19.20;99.90
18406;DHT22;9329;48.720;9.588;2022-08-20T03:09:00;19.10;99.90
18406;DHT22;9329;48.720;9.588;2022-08-20T03:11:30;19.00;99.90
18406;DHT22;9329;48.720;9.588;2022-08-20T03:13:57;18.90;99.90
18406;DHT22;9329;48.720;9.588;2022-08-20T03:16:25;19.00;99.90
18406;DHT22;9329;48.720;9.588;2022-08-20T03:18:52;19.00;99.90
18406;DHT22;9329;48.720;9.588;2022-08-20T03:21:19;18.90;99.90
18406;DHT22;9329;48.720;9.588;2022-08-20T03:23:46;19.00;99.90
18406;DHT22;9329;48.720;9.588;2022-08-20T03:26:14;18.80;99.90
18406;DHT22;9329;48.720;9.588;2022-08-20T03:28:42;18.80;99.90
18406;DHT22;9329;48.720;9.588;2022-08-20T03:31:10;18.70;99.90
18406;DHT22;9329;48.720;9.588;2022-08-20T03:33:37;18.60;99.90
18406;DHT22;9329;48.720;9.588;2022-08-20T03:36:05;18.60;99.90
18406;DHT22;9329;48.720;9.588;2022-08-20T03:38:33;18.70;99.90
18406;DHT22;9329;48.720;9.588;2022-08-20T03:41:01;18.50;99.90
18406;DHT22;9329;48.720;9.588;2022-08-20T03:43:30;18.60;99.90
18406;DHT22;9329;48.720;9.588;2022-08-20T03:45:58;18.60;99.90
18406;DHT22;9329;48.720;9.588;2022-08-20T03:48:25;18.60;99.90
18406;DHT22;9329;48.720;9.588;2022-08-20T03:50:52;18.50;99.90
18406;DHT22;9329;48.720;9.588;2022-08-20T03:53:22;18.70;99.90
18406;DHT22;9329;48.720;9.588;2022-08-20T03:55:49;18.80;99.90
18406;DHT22;9329;48.720;9.588;2022-08-20T03:58:21;18.70;99.90
18406;DHT22;9329;48.720;9.588;2022-08-20T04:00:50;18.70;99.90
18406;DHT22;9329;48.720;9.588;2022-08-20T04:03:17;18.60;99.90
18406;DHT22;9329;48.720;9.588;2022-08-20T04:05:45;18.70;99.90
18406;DHT22;9329;48.720;9.588;2022-08-20T04:08:15;18.80;99.90
18406;DHT22;9329;48.720;9.588;2022-08-20T04:10:44;18.70;99.90
18406;DHT22;9329;48.720;9.588;2022-08-20T04:13:12;18.70;99.90
18406;DHT22;9329;48.720;9.588;2022-08-20T04:15:42;18.70;99.90
18406;DHT22;9329;48.720;9.588;2022-08-20T04:18:12;18.60;99.90
18406;DHT22;9329;48.720;9.588;2022-08-20T04:20:41;18.70;99.90
18406;DHT22;9329;48.720;9.588;2022-08-20T04:23:08;18.60;99.90
18406;DHT22;9329;48.720;9.588;2022-08-20T04:25:37;18.60;99.90
18406;DHT22;9329;48.720;9.588;2022-08-20T04:28:07;18.70;99.90
18406;DHT22;9329;48.720;9.588;2022-08-20T04:30:34;18.50;99.90
18406;DHT22;9329;48.720;9.588;2022-08-20T04:33:02;18.50;99.90
18406;DHT22;9329;48.720;9.588;2022-08-20T04:35:30;18.30;99.90
18406;DHT22;9329;48.720;9.588;2022-08-20T04:37:59;18.50;99.90
18406;DHT22;9329;48.720;9.588;2022-08-20T04:40:27;18.40;99.90
18406;DHT22;9329;48.720;9.588;2022-08-20T04:43:12;18.40;99.90
18406;DHT22;9329;48.720;9.588;2022-08-20T04:45:40;18.50;99.90
18406;DHT22;9329;48.720;9.588;2022-08-20T04:48:07;18.70;99.90
18406;DHT22;9329;48.720;9.588;2022-08-20T04:50:37;18.80;99.90
18406;DHT22;9329;48.720;9.588;2022-08-20T04:53:06;18.70;99.90
18406;DHT22;9329;48.720;9.588;2022-08-20T04:55:35;18.70;99.90
18406;DHT22;9329;48.720;9.588;2022-08-20T04:58:04;19.30;99.90
18406;DHT22;9329;48.720;9.588;2022-08-20T05:00:32;19.10;99.90
18406;DHT22;9329;48.720;9.588;2022-08-20T05:02:59;19.20;99.90
18406;DHT22;9329;48.720;9.588;2022-08-20T05:05:27;19.50;99.90
18406;DHT22;9329;48.720;9.588;2022-08-20T05:07:56;19.20;99.90
18406;DHT22;9329;48.720;9.588;2022-08-20T05:10:23;19.30;99.90
18406;DHT22;9329;48.720;9.588;2022-08-20T05:12:51;19.30;99.90
18406;DHT22;9329;48.720;9.588;2022-08-20T05:15:18;19.30;99.90
18406;DHT22;9329;48.720;9.588;2022-08-20T05:17:46;19.30;99.90
18406;DHT22;9329;48.720;9.588;2022-08-20T05:20:16;19.60;99.90
18406;DHT22;9329;48.720;9.588;2022-08-20T05:22:43;20.00;99.90
18406;DHT22;9329;48.720;9.588;2022-08-20T05:25:12;20.20;99.90
18406;DHT22;9329;48.720;9.588;2022-08-20T05:27:39;19.90;99.90
18406;DHT22;9329;48.720;9.588;2022-08-20T05:30:09;20.30;99.90
18406;DHT22;9329;48.720;9.588;2022-08-20T05:32:37;20.40;99.90
18406;DHT22;9329;48.720;9.588;2022-08-20T05:35:06;20.20;99.90
18406;DHT22;9329;48.720;9.588;2022-08-20T05:37:34;20.20;99.90
18406;DHT22;9329;48.720;9.588;2022-08-20T05:40:01;20.30;99.90
18406;DHT22;9329;48.720;9.588;2022-08-20T05:42:34;20.40;99.90
18406;DHT22;9329;48.720;9.588;2022-08-20T05:45:02;20.10;99.90
18406;DHT22;9329;48.720;9.588;2022-08-20T05:47:29;20.10;99.90
18406;DHT22;9329;48.720;9.588;2022-08-20T05:49:56;20.00;99.90
18406;DHT22;9329;48.720;9.588;2022-08-20T05:52:23;19.90;99.90
18406;DHT22;9329;48.720;9.588;2022-08-20T05:54:50;20.10;99.90
18406;DHT22;9329;48.720;9.588;2022-08-20T05:57:18;20.10;99.90
18406;DHT22;9329;48.720;9.588;2022-08-20T05:59:46;20.10;99.90
18406;DHT22;9329;48.720;9.588;2022-08-20T06:02:13;19.90;99.90
18406;DHT22;9329;48.720;9.588;2022-08-20T06:04:58;20.20;99.90
18406;DHT22;9329;48.720;9.588;2022-08-20T06:07:26;20.40;99.90
18406;DHT22;9329;48.720;9.588;2022-08-20T06:09:53;20.30;99.90
18406;DHT22;9329;48.720;9.588;2022-08-20T06:12:20;20.40;99.90
18406;DHT22;9329;48.720;9.588;2022-08-20T06:14:48;20.90;99.90
18406;DHT22;9329;48.720;9.588;2022-08-20T06:17:17;20.70;99.90
18406;DHT22;9329;48.720;9.588;2022-08-20T06:19:46;20.80;99.90
18406;DHT22;9329;48.720;9.588;2022-08-20T06:22:14;21.10;99.90
18406;DHT22;9329;48.720;9.588;2022-08-20T06:24:41;21.10;99.90
18406;DHT22;9329;48.720;9.588;2022-08-20T06:27:12;20.70;99.90
18406;DHT22;9329;48.720;9.588;2022-08-20T06:29:40;20.40;99.90
18406;DHT22;9329;48.720;9.588;2022-08-20T06:32:08;20.40;99.90
18406;DHT22;9329;48.720;9.588;2022-08-20T06:34:38;20.40;99.90
18406;DHT22;9329;48.720;9.588;2022-08-20T06:37:13;20.50;99.90
18406;DHT22;9329;48.720;9.588;2022-08-20T06:39:41;20.70;99.90
18406;DHT22;9329;48.720;9.588;2022-08-20T06:42:08;20.90;99.90
18406;DHT22;9329;48.720;9.588;2022-08-20T06:44:35;21.00;99.90
18406;DHT22;9329;48.720;9.588;2022-08-20T06:47:03;21.30;99.90
18406;DHT22;9329;48.720;9.588;2022-08-20T06:49:33;21.60;99.90
18406;DHT22;9329;48.720;9.588;2022-08-20T06:52:00;21.70;99.90
18406;DHT22;9329;48.720;9.588;2022-08-20T06:54:27;21.80;99.90
18406;DHT22;9329;48.720;9.588;2022-08-20T06:56:54;21.90;99.90
18406;DHT22;9329;48.720;9.588;2022-08-20T06:59:21;22.60;99.90
18406;DHT22;9329;48.720;9.588;2022-08-20T07:01:48;23.00;99.90
18406;DHT22;9329;48.720;9.588;2022-08-20T07:04:15;23.50;99.90
18406;DHT22;9329;48.720;9.588;2022-08-20T07:06:44;23.60;99.90
18406;DHT22;9329;48.720;9.588;2022-08-20T07:09:20;23.70;99.90
18406;DHT22;9329;48.720;9.588;2022-08-20T07:11:48;23.50;99.90
18406;DHT22;9329;48.720;9.588;2022-08-20T07:14:15;23.60;99.90
18406;DHT22;9329;48.720;9.588;2022-08-20T07:16:43;23.50;99.90
18406;DHT22;9329;48.720;9.588;2022-08-20T07:19:11;23.90;99.90
18406;DHT22;9329;48.720;9.588;2022-08-20T07:21:39;23.80;99.90
18406;DHT22;9329;48.720;9.588;2022-08-20T07:24:07;23.60;99.90
18406;DHT22;9329;48.720;9.588;2022-08-20T07:26:37;24.00;99.90
18406;DHT22;9329;48.720;9.588;2022-08-20T07:29:04;24.00;99.90
18406;DHT22;9329;48.720;9.588;2022-08-20T07:31:31;23.50;99.90
18406;DHT22;9329;48.720;9.588;2022-08-20T07:34:15;23.20;99.90
18406;DHT22;9329;48.720;9.588;2022-08-20T07:36:42;23.70;99.90
18406;DHT22;9329;48.720;9.588;2022-08-20T07:39:19;23.60;99.90
18406;DHT22;9329;48.720;9.588;2022-08-20T07:41:49;24.10;99.90
18406;DHT22;9329;48.720;9.588;2022-08-20T07:44:27;23.90;99.90
18406;DHT22;9329;48.720;9.588;2022-08-20T07:46:57;23.90;99.90
18406;DHT22;9329;48.720;9.588;2022-08-20T07:49:24;24.30;99.90
18406;DHT22;9329;48.720;9.588;2022-08-20T07:51:51;24.00;99.90
18406;DHT22;9329;48.720;9.588;2022-08-20T07:54:19;24.10;99.90
18406;DHT22;9329;48.720;9.588;2022-08-20T07:56:47;24.20;99.90
18406;DHT22;9329;48.720;9.588;2022-08-20T07:59:14;24.00;99.90
18406;DHT22;9329;48.720;9.588;2022-08-20T08:01:41;24.00;99.90
18406;DHT22;9329;48.720;9.588;2022-08-20T08:04:08;24.00;99.90
18406;DHT22;9329;48.720;9.588;2022-08-20T08:06:38;23.90;99.90
18406;DHT22;9329;48.720;9.588;2022-08-20T08:09:12;23.70;99.90
18406;DHT22;9329;48.720;9.588;2022-08-20T08:11:44;23.60;99.90
18406;DHT22;9329;48.720;9.588;2022-08-20T08:14:16;23.90;99.90
18406;DHT22;9329;48.720;9.588;2022-08-20T08:16:46;24.20;99.90
18406;DHT22;9329;48.720;9.588;2022-08-20T08:19:14;24.00;99.90
18406;DHT22;9329;48.720;9.588;2022-08-20T08:21:42;24.00;99.90
18406;DHT22;9329;48.720;9.588;2022-08-20T08:24:09;23.90;99.90
18406;DHT22;9329;48.720;9.588;2022-08-20T08:26:37;23.80;99.90
18406;DHT22;9329;48.720;9.588;2022-08-20T08:29:08;23.70;99.90
18406;DHT22;9329;48.720;9.588;2022-08-20T08:31:36;23.80;99.90
18406;DHT22;9329;48.720;9.588;2022-08-20T08:34:05;24.00;99.90
18406;DHT22;9329;48.720;9.588;2022-08-20T08:36:34;24.00;99.90
18406;DHT22;9329;48.720;9.588;2022-08-20T08:39:12;24.00;99.90
18406;DHT22;9329;48.720;9.588;2022-08-20T08:41:40;24.30;99.90
18406;DHT22;9329;48.720;9.588;2022-08-20T08:44:15;24.20;99.90
18406;DHT22;9329;48.720;9.588;2022-08-20T08:46:46;24.00;99.90
18406;DHT22;9329;48.720;9.588;2022-08-20T08:49:18;24.10;99.90
18406;DHT22;9329;48.720;9.588;2022-08-20T08:51:48;24.00;99.90
18406;DHT22;9329;48.720;9.588;2022-08-20T08:54:19;24.10;99.90
18406;DHT22;9329;48.720;9.588;2022-08-20T08:56:47;24.40;99.90
18406;DHT22;9329;48.720;9.588;2022-08-20T08:59:17;24.60;99.90
18406;DHT22;9329;48.720;9.588;2022-08-20T09:01:47;24.40;99.90
18406;DHT22;9329;48.720;9.588;2022-08-20T09:04:16;24.80;99.90
18406;DHT22;9329;48.720;9.588;2022-08-20T09:06:47;24.80;99.90
18406;DHT22;9329;48.720;9.588;2022-08-20T09:09:18;25.00;99.90
18406;DHT22;9329;48.720;9.588;2022-08-20T09:11:48;24.80;99.90
18406;DHT22;9329;48.720;9.588;2022-08-20T09:14:16;25.00;99.90
18406;DHT22;9329;48.720;9.588;2022-08-20T09:16:44;25.00;99.90
18406;DHT22;9329;48.720;9.588;2022-08-20T09:19:11;24.90;99.90
18406;DHT22;9329;48.720;9.588;2022-08-20T09:21:38;25.10;99.90
18406;DHT22;9329;48.720;9.588;2022-08-20T09:24:05;25.40;99.90
18406;DHT22;9329;48.720;9.588;2022-08-20T09:26:33;26.10;99.90
18406;DHT22;9329;48.720;9.588;2022-08-20T09:29:00;26.80;99.90
18406;DHT22;9329;48.720;9.588;2022-08-20T09:31:28;26.80;99.90
18406;DHT22;9329;48.720;9.588;2022-08-20T09:33:56;26.20;99.90
18406;DHT22;9329;48.720;9.588;2022-08-20T09:36:23;26.00;99.90
18406;DHT22;9329;48.720;9.588;2022-08-20T09:38:50;26.10;99.90
18406;DHT22;9329;48.720;9.588;2022-08-20T09:41:18;26.30;99.90
18406;DHT22;9329;48.720;9.588;2022-08-20T09:43:45;25.90;99.90
18406;DHT22;9329;48.720;9.588;2022-08-20T09:46:12;25.70;99.90
18406;DHT22;9329;48.720;9.588;2022-08-20T09:48:41;25.90;99.90
18406;DHT22;9329;48.720;9.588;2022-08-20T09:51:08;25.90;99.90
18406;DHT22;9329;48.720;9.588;2022-08-20T09:53:36;26.30;99.90
18406;DHT22;9329;48.720;9.588;2022-08-20T09:56:03;26.90;99.90
18406;DHT22;9329;48.720;9.588;2022-08-20T09:58:34;27.10;99.90
18406;DHT22;9329;48.720;9.588;2022-08-20T10:01:10;27.00;99.90
18406;DHT22;9329;48.720;9.588;2022-08-20T10:03:41;27.50;99.90
18406;DHT22;9329;48.720;9.588;2022-08-20T10:06:08;28.20;99.90
18406;DHT22;9329;48.720;9.588;2022-08-20T10:08:39;28.00;99.90
18406;DHT22;9329;48.720;9.588;2022-08-20T10:11:06;27.90;99.90
18406;DHT22;9329;48.720;9.588;2022-08-20T10:13:33;27.80;99.90
18406;DHT22;9329;48.720;9.588;2022-08-20T10:16:01;28.20;99.90
18406;DHT22;9329;48.720;9.588;2022-08-20T10:18:28;28.80;99.90
18406;DHT22;9329;48.720;9.588;2022-08-20T10:20:56;29.20;99.90
18406;DHT22;9329;48.720;9.588;2022-08-20T10:23:23;29.20;99.90
18406;DHT22;9329;48.720;9.588;2022-08-20T10:25:50;29.60;99.90
18406;DHT22;9329;48.720;9.588;2022-08-20T10:28:17;28.80;99.90
18406;DHT22;9329;48.720;9.588;2022-08-20T10:30:44;28.30;99.90
18406;DHT22;9329;48.720;9.588;2022-08-20T10:33:11;27.90;99.90
18406;DHT22;9329;48.720;9.588;2022-08-20T10:35:38;27.00;99.90
18406;DHT22;9329;48.720;9.588;2022-08-20T10:38:07;27.00;99.90
18406;DHT22;9329;48.720;9.588;2022-08-20T10:40:34;26.90;99.90
18406;DHT22;9329;48.720;9.588;2022-08-20T10:43:01;26.40;99.90
18406;DHT22;9329;48.720;9.588;2022-08-20T10:45:28;26.30;99.90
18406;DHT22;9329;48.720;9.588;2022-08-20T10:47:58;26.20;99.90
18406;DHT22;9329;48.720;9.588;2022-08-20T10:50:25;26.30;99.90
18406;DHT22;9329;48.720;9.588;2022-08-20T10:52:52;25.90;99.90
18406;DHT22;9329;48.720;9.588;2022-08-20T10:55:20;25.80;99.90
18406;DHT22;9329;48.720;9.588;2022-08-20T10:57:47;25.80;99.90
18406;DHT22;9329;48.720;9.588;2022-08-20T11:00:16;26.10;99.90
18406;DHT22;9329;48.720;9.588;2022-08-20T11:02:44;26.50;99.90
18406;DHT22;9329;48.720;9.588;2022-08-20T11:05:11;26.70;99.90
18406;DHT22;9329;48.720;9.588;2022-08-20T11:07:40;27.00;99.90
18406;DHT22;9329;48.720;9.588;2022-08-20T11:10:09;27.10;99.90
18406;DHT22;9329;48.720;9.588;2022-08-20T11:12:37;27.00;99.90
18406;DHT22;9329;48.720;9.588;2022-08-20T11:15:05;26.60;99.90
18406;DHT22;9329;48.720;9.588;2022-08-20T11:17:38;26.90;99.90
18406;DHT22;9329;48.720;9.588;2022-08-20T11:20:07;26.60;99.90
18406;DHT22;9329;48.720;9.588;2022-08-20T11:22:35;26.30;99.90
18406;DHT22;9329;48.720;9.588;2022-08-20T11:25:03;26.20;99.90
18406;DHT22;9329;48.720;9.588;2022-08-20T11:27:35;26.20;99.90
18406;DHT22;9329;48.720;9.588;2022-08-20T11:30:06;25.90;99.90
18406;DHT22;9329;48.720;9.588;2022-08-20T11:32:34;26.10;99.90
18406;DHT22;9329;48.720;9.588;2022-08-20T11:35:01;26.00;99.90
18406;DHT22;9329;48.720;9.588;2022-08-20T11:37:28;26.00;99.90
18406;DHT22;9329;48.720;9.588;2022-08-20T11:39:55;26.20;99.90
18406;DHT22;9329;48.720;9.588;2022-08-20T11:42:22;25.90;99.90
18406;DHT22;9329;48.720;9.588;2022-08-20T11:44:49;25.30;99.90
18406;DHT22;9329;48.720;9.588;2022-08-20T11:47:22;25.50;99.90
18406;DHT22;9329;48.720;9.588;2022-08-20T11:49:56;25.30;99.90
18406;DHT22;9329;48.720;9.588;2022-08-20T11:52:24;24.90;99.90
18406;DHT22;9329;48.720;9.588;2022-08-20T11:54:55;25.00;99.90
18406;DHT22;9329;48.720;9.588;2022-08-20T11:57:24;24.80;99.90
18406;DHT22;9329;48.720;9.588;2022-08-20T11:59:53;24.60;99.90
18406;DHT22;9329;48.720;9.588;2022-08-20T12:02:22;24.10;99.90
18406;DHT22;9329;48.720;9.588;2022-08-20T12:04:49;23.70;99.90
18406;DHT22;9329;48.720;9.588;2022-08-20T12:07:20;23.50;99.90
18406;DHT22;9329;48.720;9.588;2022-08-20T12:09:48;23.80;99.90
18406;DHT22;9329;48.720;9.588;2022-08-20T12:12:17;23.90;99.90
18406;DHT22;9329;48.720;9.588;2022-08-20T12:14:45;23.60;99.90
18406;DHT22;9329;48.720;9.588;2022-08-20T12:17:14;23.30;99.90
18406;DHT22;9329;48.720;9.588;2022-08-20T12:19:46;23.20;99.90
18406;DHT22;9329;48.720;9.588;2022-08-20T12:22:13;23.30;99.90
18406;DHT22;9329;48.720;9.588;2022-08-20T12:24:40;23.20;99.90
18406;DHT22;9329;48.720;9.588;2022-08-20T12:27:08;23.40;99.90
18406;DHT22;9329;48.720;9.588;2022-08-20T12:29:36;22.90;99.90
18406;DHT22;9329;48.720;9.588;2022-08-20T12:32:05;22.70;99.90
18406;DHT22;9329;48.720;9.588;2022-08-20T12:34:33;22.90;99.90
18406;DHT22;9329;48.720;9.588;2022-08-20T12:37:03;23.00;99.90
18406;DHT22;9329;48.720;9.588;2022-08-20T12:39:30;23.10;99.90
18406;DHT22;9329;48.720;9.588;2022-08-20T12:41:59;23.20;99.90
18406;DHT22;9329;48.720;9.588;2022-08-20T12:44:27;23.30;99.90
18406;DHT22;9329;48.720;9.588;2022-08-20T12:47:05;22.70;99.90
18406;DHT22;9329;48.720;9.588;2022-08-20T12:49:32;22.90;99.90
18406;DHT22;9329;48.720;9.588;2022-08-20T12:51:59;23.40;99.90
18406;DHT22;9329;48.720;9.588;2022-08-20T12:54:28;23.70;99.90
18406;DHT22;9329;48.720;9.588;2022-08-20T12:56:55;23.40;99.90
18406;DHT22;9329;48.720;9.588;2022-08-20T12:59:23;23.20;99.90
18406;DHT22;9329;48.720;9.588;2022-08-20T13:01:51;23.60;99.90
18406;DHT22;9329;48.720;9.588;2022-08-20T13:04:18;23.50;99.90
18406;DHT22;9329;48.720;9.588;2022-08-20T13:06:46;23.40;99.90
18406;DHT22;9329;48.720;9.588;2022-08-20T13:09:14;23.70;99.90
18406;DHT22;9329;48.720;9.588;2022-08-20T13:11:44;23.70;99.90
18406;DHT22;9329;48.720;9.588;2022-08-20T13:14:11;24.20;99.90
18406;DHT22;9329;48.720;9.588;2022-08-20T13:16:38;24.40;99.90
18406;DHT22;9329;48.720;9.588;2022-08-20T13:19:05;24.70;99.90
18406;DHT22;9329;48.720;9.588;2022-08-20T13:21:32;24.70;99.90
18406;DHT22;9329;48.720;9.588;2022-08-20T13:23:59;24.60;99.90
18406;DHT22;9329;48.720;9.588;2022-08-20T13:26:27;25.00;99.90
18406;DHT22;9329;48.720;9.588;2022-08-20T13:28:55;25.30;99.90
18406;DHT22;9329;48.720;9.588;2022-08-20T13:31:22;25.00;99.90
18406;DHT22;9329;48.720;9.588;2022-08-20T13:33:49;25.60;99.90
18406;DHT22;9329;48.720;9.588;2022-08-20T13:36:17;26.00;99.90
18406;DHT22;9329;48.720;9.588;2022-08-20T13:38:44;26.20;99.90
18406;DHT22;9329;48.720;9.588;2022-08-20T13:41:11;28.00;99.90
18406;DHT22;9329;48.720;9.588;2022-08-20T13:43:38;28.70;99.90
18406;DHT22;9329;48.720;9.588;2022-08-20T13:46:06;29.80;99.90
18406;DHT22;9329;48.720;9.588;2022-08-20T13:48:33;30.20;99.90
18406;DHT22;9329;48.720;9.588;2022-08-20T13:51:00;30.30;99.90
18406;DHT22;9329;48.720;9.588;2022-08-20T13:53:27;30.50;99.90
18406;DHT22;9329;48.720;9.588;2022-08-20T13:55:55;30.20;99.90
18406;DHT22;9329;48.720;9.588;2022-08-20T13:58:22;30.80;99.90
18406;DHT22;9329;48.720;9.588;2022-08-20T14:00:49;30.70;99.90
18406;DHT22;9329;48.720;9.588;2022-08-20T14:03:18;30.10;99.90
18406;DHT22;9329;48.720;9.588;2022-08-20T14:05:45;30.30;99.90
18406;DHT22;9329;48.720;9.588;2022-08-20T14:08:16;30.20;99.90
18406;DHT22;9329;48.720;9.588;2022-08-20T14:10:44;29.00;99.90
18406;DHT22;9329;48.720;9.588;2022-08-20T14:13:15;28.80;99.90
18406;DHT22;9329;48.720;9.588;2022-08-20T14:15:43;28.20;99.90
18406;DHT22;9329;48.720;9.588;2022-08-20T14:18:10;28.00;99.90
18406;DHT22;9329;48.720;9.588;2022-08-20T14:20:40;27.30;99.90
18406;DHT22;9329;48.720;9.588;2022-08-20T14:23:07;27.20;99.90
18406;DHT22;9329;48.720;9.588;2022-08-20T14:25:35;26.20;99.90
18406;DHT22;9329;48.720;9.588;2022-08-20T14:28:09;25.90;99.90
18406;DHT22;9329;48.720;9.588;2022-08-20T14:30:37;25.90;99.90
18406;DHT22;9329;48.720;9.588;2022-08-20T14:33:04;26.00;99.90
18406;DHT22;9329;48.720;9.588;2022-08-20T14:35:32;25.70;99.90
18406;DHT22;9329;48.720;9.588;2022-08-20T14:38:00;26.20;99.90
18406;DHT22;9329;48.720;9.588;2022-08-20T14:40:28;25.50;99.90
18406;DHT22;9329;48.720;9.588;2022-08-20T14:42:59;26.60;99.90
18406;DHT22;9329;48.720;9.588;2022-08-20T14:45:26;29.10;99.90
18406;DHT22;9329;48.720;9.588;2022-08-20T14:47:57;32.00;99.90
18406;DHT22;9329;48.720;9.588;2022-08-20T14:50:27;34.90;99.90
18406;DHT22;9329;48.720;9.588;2022-08-20T14:52:55;37.90;96.60
18406;DHT22;9329;48.720;9.588;2022-08-20T14:55:30;40.00;87.70
18406;DHT22;9329;48.720;9.588;2022-08-20T14:57:58;41.40;69.60
18406;DHT22;9329;48.720;9.588;2022-08-20T15:00:27;42.10;66.30
18406;DHT22;9329;48.720;9.588;2022-08-20T15:02:55;43.30;59.70
18406;DHT22;9329;48.720;9.588;2022-08-20T15:05:22;44.70;54.00
18406;DHT22;9329;48.720;9.588;2022-08-20T15:07:50;43.80;51.30
18406;DHT22;9329;48.720;9.588;2022-08-20T15:10:19;42.80;52.10
18406;DHT22;9329;48.720;9.588;2022-08-20T15:12:48;42.30;53.60
18406;DHT22;9329;48.720;9.588;2022-08-20T15:15:16;41.30;53.60
18406;DHT22;9329;48.720;9.588;2022-08-20T15:17:45;42.40;53.30
18406;DHT22;9329;48.720;9.588;2022-08-20T15:20:14;43.20;50.40
18406;DHT22;9329;48.720;9.588;2022-08-20T15:22:42;43.00;48.30
18406;DHT22;9329;48.720;9.588;2022-08-20T15:25:12;43.20;51.00
18406;DHT22;9329;48.720;9.588;2022-08-20T15:27:40;43.20;48.10
18406;DHT22;9329;48.720;9.588;2022-08-20T15:30:13;44.20;48.00
18406;DHT22;9329;48.720;9.588;2022-08-20T15:32:40;44.20;47.60
18406;DHT22;9329;48.720;9.588;2022-08-20T15:35:07;44.50;46.00
18406;DHT22;9329;48.720;9.588;2022-08-20T15:37:39;43.90;42.80
18406;DHT22;9329;48.720;9.588;2022-08-20T15:40:07;43.00;45.50
18406;DHT22;9329;48.720;9.588;2022-08-20T15:42:35;41.60;48.90
18406;DHT22;9329;48.720;9.588;2022-08-20T15:45:03;40.80;51.60
18406;DHT22;9329;48.720;9.588;2022-08-20T15:47:34;40.20;51.80
18406;DHT22;9329;48.720;9.588;2022-08-20T15:50:06;39.30;54.60
18406;DHT22;9329;48.720;9.588;2022-08-20T15:52:37;37.20;58.80